Time,TemperatureF,DewpointF,PressureIn,WindDirection,WindDirectionDegrees,WindSpeedMPH,WindSpeedGustMPH,Humidity,HourlyPrecipIn,Conditions,Clouds,dailyrainin,SoftwareType,DateUTC
2013-01-12 00:02:00,18.0,13.0,-100.00,North,4,0.0,10.0,79,-99.99,,,-99.99,,2013-01-12 08:02:00,
2013-01-12 00:22:00,17.0,13.0,-100.00,SSW,199,0.0,15.0,85,-99.99,,,-99.99,,2013-01-12 08:22:00,
2013-01-12 00:52:00,17.0,13.0,-100.00,SSW,199,0.0,15.0,85,-99.99,,,-99.99,,2013-01-12 08:52:00,
2013-01-12 01:02:00,17.0,13.0,-100.00,SSW,199,0.0,15.0,85,-99.99,,,-99.99,,2013-01-12 09:02:00,
2013-01-12 01:12:00,17.0,13.0,-100.00,SSW,199,0.0,15.0,85,-99.99,,,-99.99,,2013-01-12 09:12:00,
2013-01-12 01:42:00,17.0,12.0,-100.00,NNW,343,2.0,6.0,82,-99.99,,,-99.99,,2013-01-12 09:42:00,
2013-01-12 01:53:00,17.0,12.0,-100.00,North,350,2.0,13.0,80,-99.99,,,-99.99,,2013-01-12 09:53:00,
2013-01-12 02:02:00,17.0,12.0,-100.00,NNW,347,2.0,13.0,80,-99.99,,,-99.99,,2013-01-12 10:02:00,
2013-01-12 02:11:00,17.0,12.0,-100.00,NNW,347,2.0,13.0,80,-99.99,,,-99.99,,2013-01-12 10:11:00,
2013-01-12 02:22:00,17.0,12.0,-100.00,NNW,347,2.0,13.0,80,-99.99,,,-99.99,,2013-01-12 10:22:00,
2013-01-12 03:02:00,14.0,12.0,-100.00,NNW,329,0.0,11.0,93,-99.99,,,-99.99,,2013-01-12 11:02:00,
2013-01-12 03:12:00,14.0,12.0,-100.00,West,270,0.0,11.0,93,-99.99,,,-99.99,,2013-01-12 11:12:00,
2013-01-12 03:22:00,14.0,13.0,-100.00,SW,216,0.0,11.0,94,-99.99,,,-99.99,,2013-01-12 11:22:00,
2013-01-12 03:32:00,14.0,13.0,-100.00,SW,217,0.0,11.0,94,-99.99,,,-99.99,,2013-01-12 11:32:00,
2013-01-12 03:42:00,14.0,13.0,-100.00,SW,217,0.0,11.0,94,-99.99,,,-99.99,,2013-01-12 11:42:00,
2013-01-12 03:52:00,14.0,13.0,-100.00,SW,217,0.0,11.0,94,-99.99,,,-99.99,,2013-01-12 11:52:00,
2013-01-12 04:33:00,13.0,11.0,-100.00,WSW,254,0.0,7.0,90,-99.99,,,-99.99,,2013-01-12 12:33:00,
2013-01-12 04:43:00,13.0,10.0,-100.00,WSW,258,1.0,16.0,89,-99.99,,,-99.99,,2013-01-12 12:43:00,
2013-01-12 04:53:00,13.0,10.0,-100.00,WSW,258,1.0,16.0,89,-99.99,,,-99.99,,2013-01-12 12:53:00,
2013-01-12 05:02:00,14.0,11.0,-100.00,SW,226,1.0,13.0,88,-99.99,,,-99.99,,2013-01-12 13:02:00,
2013-01-12 08:03:00,10.0,7.0,-100.00,SSW,200,0.0,1.0,86,-99.99,,,-99.99,,2013-01-12 16:03:00,
2013-01-12 08:12:00,10.0,7.0,-100.00,SSW,200,0.0,1.0,86,-99.99,,,-99.99,,2013-01-12 16:12:00,
2013-01-12 08:22:00,12.0,8.0,-100.00,SSW,198,0.0,7.0,83,-99.99,,,-99.99,,2013-01-12 16:22:00,
2013-01-12 08:32:00,12.0,8.0,-100.00,SSW,198,0.0,7.0,83,-99.99,,,-99.99,,2013-01-12 16:32:00,
2013-01-12 09:53:00,14.0,8.0,-100.00,SSE,160,2.0,4.0,77,-99.99,,,-99.99,,2013-01-12 17:53:00,
2013-01-12 10:02:00,14.0,8.0,-100.00,SSE,160,2.0,4.0,77,-99.99,,,-99.99,,2013-01-12 18:02:00,
2013-01-12 10:32:00,20.0,11.0,-100.00,ESE,114,1.0,12.0,66,-99.99,,,-99.99,,2013-01-12 18:32:00,
2013-01-12 10:53:00,20.0,11.0,-100.00,ESE,116,1.0,12.0,67,-99.99,,,-99.99,,2013-01-12 18:53:00,
2013-01-12 11:03:00,20.0,11.0,-100.00,ESE,114,1.0,12.0,66,-99.99,,,-99.99,,2013-01-12 19:03:00,
2013-01-12 11:12:00,20.0,11.0,-100.00,ESE,114,1.0,12.0,66,-99.99,,,-99.99,,2013-01-12 19:12:00,
2013-01-12 11:22:00,20.0,11.0,-100.00,ESE,114,1.0,12.0,66,-99.99,,,-99.99,,2013-01-12 19:22:00,
2013-01-12 12:02:00,22.0,11.0,-100.00,East,100,1.0,13.0,62,-99.99,,,-99.99,,2013-01-12 20:02:00,
2013-01-12 12:12:00,22.0,11.0,-100.00,East,100,1.0,13.0,62,-99.99,,,-99.99,,2013-01-12 20:12:00,
2013-01-12 12:22:00,22.0,11.0,-100.00,East,100,1.0,13.0,62,-99.99,,,-99.99,,2013-01-12 20:22:00,
2013-01-12 12:32:00,22.0,11.0,-100.00,East,100,1.0,13.0,62,-99.99,,,-99.99,,2013-01-12 20:32:00,
2013-01-12 14:53:00,19.0,11.0,-100.00,SSE,165,2.0,15.0,69,-99.99,,,-99.99,,2013-01-12 22:53:00,
2013-01-12 15:02:00,19.0,11.0,-100.00,SSE,165,2.0,15.0,69,-99.99,,,-99.99,,2013-01-12 23:02:00,
2013-01-12 15:12:00,19.0,11.0,-100.00,SSE,165,2.0,15.0,69,-99.99,,,-99.99,,2013-01-12 23:12:00,
2013-01-12 15:22:00,19.0,11.0,-100.00,SSE,165,2.0,15.0,69,-99.99,,,-99.99,,2013-01-12 23:22:00,
2013-01-12 16:22:00,18.0,6.0,-100.00,NNW,333,0.0,15.0,58,-99.99,,,-99.99,,2013-01-13 00:22:00,
2013-01-12 16:43:00,18.0,6.0,-100.00,SSW,193,0.0,12.0,59,-99.99,,,-99.99,,2013-01-13 00:43:00,
2013-01-12 16:53:00,18.0,6.0,-100.00,NNW,333,0.0,15.0,58,-99.99,,,-99.99,,2013-01-13 00:53:00,
2013-01-12 17:02:00,18.0,6.0,-100.00,NNW,333,0.0,15.0,58,-99.99,,,-99.99,,2013-01-13 01:02:00,
2013-01-12 17:12:00,18.0,6.0,-100.00,NNW,333,0.0,15.0,58,-99.99,,,-99.99,,2013-01-13 01:12:00,
2013-01-12 19:33:00,17.0,7.0,-100.00,NW,312,3.0,13.0,65,-99.99,,,-99.99,,2013-01-13 03:33:00,
2013-01-12 19:43:00,17.0,7.0,-100.00,NW,306,3.0,19.0,65,-99.99,,,-99.99,,2013-01-13 03:43:00,
2013-01-12 19:53:00,17.0,7.0,-100.00,NW,306,3.0,19.0,65,-99.99,,,-99.99,,2013-01-13 03:53:00,
2013-01-12 20:02:00,17.0,7.0,-100.00,NW,306,3.0,19.0,65,-99.99,,,-99.99,,2013-01-13 04:02:00,
2013-01-12 20:12:00,16.0,7.0,-100.00,NW,326,1.0,13.0,67,-99.99,,,-99.99,,2013-01-13 04:12:00,
2013-01-12 20:33:00,16.0,8.0,-100.00,WNW,292,1.0,4.0,69,-99.99,,,-99.99,,2013-01-13 04:33:00,
2013-01-12 20:43:00,16.0,7.0,-100.00,NW,326,1.0,13.0,67,-99.99,,,-99.99,,2013-01-13 04:43:00,
2013-01-12 20:52:00,16.0,7.0,-100.00,NW,326,1.0,13.0,67,-99.99,,,-99.99,,2013-01-13 04:52:00,
2013-01-12 21:03:00,16.0,7.0,-100.00,NW,326,1.0,13.0,67,-99.99,,,-99.99,,2013-01-13 05:03:00,
2013-01-12 23:12:00,12.0,6.0,-100.00,WSW,250,0.0,14.0,75,-99.99,,,-99.99,,2013-01-13 07:12:00,
2013-01-12 23:22:00,12.0,5.0,-100.00,WNW,299,0.0,14.0,74,-99.99,,,-99.99,,2013-01-13 07:22:00,
2013-01-12 23:32:00,12.0,5.0,-100.00,WNW,299,0.0,14.0,74,-99.99,,,-99.99,,2013-01-13 07:32:00,
2013-01-12 23:42:00,12.0,5.0,-100.00,WNW,299,0.0,14.0,74,-99.99,,,-99.99,,2013-01-13 07:42:00,
2013-01-12 23:52:00,12.0,5.0,-100.00,WNW,299,0.0,14.0,74,-99.99,,,-99.99,,2013-01-13 07:52:00,